09 Apr 2020 04:36 UTC 2020100+04:36 UTC

Overview Datums Bench Marks Data Query Site Visit Daily QC Messages Attributes

130: GBRA Station #2

28° 24' 26" N   96° 42' 43" W
GBRA2
Guadalupe Blanco River Authority (GBRA) GBRA

Station Information

GBRA Station #2
GBRA Station #2
more pictures
 
Station Name:GBRA Station #2
DNR ID:130
Location:28° 24' 26" N, 96° 42' 43" W

Water Level Forecasts

Latest Observations

Series Metric English Marine Observed at
Water Temperature 26.7 °C 80.1 °F 80.1 °F Apr 08 23:24 CDT
00h07m ago
Salinity 14.400 psu 14.400 psu 14.400 psu Apr 08 23:24 CDT
00h07m ago

Maps

GBRA Station #2
All Stations in Area
Entire Network
 

Recent Observations

Date/Time Water
Temp (°F)
Sal (psu)
Apr 08 23:00 CDT 80.1 14.800
Apr 08 22:00 CDT 80.6 15.100
Apr 08 21:00 CDT 80.8 17.300
Apr 08 20:00 CDT 81.1 15.100
Apr 08 19:00 CDT 82.2 14.300
Apr 08 18:00 CDT 82.6 14.600
Apr 08 17:00 CDT 81.9 15.800
Apr 08 16:00 CDT 80.8 17.200
Apr 08 15:00 CDT 79.7 14.200
Apr 08 14:00 CDT 79.0 16.300
Apr 08 13:00 CDT 77.7 18.500
Apr 08 12:00 CDT 76.5 18.600
Apr 08 11:00 CDT 75.4 18.700
Apr 08 10:00 CDT 74.8 18.800
Apr 08 09:00 CDT 74.8 18.800
Apr 08 08:00 CDT 74.8 18.800
Apr 08 07:00 CDT 74.8 18.900
Apr 08 06:00 CDT 74.8 19.000
Apr 08 05:00 CDT 75.0 18.900
Apr 08 04:00 CDT 75.0 18.900
Apr 08 03:00 CDT 75.0 18.800
Apr 08 02:00 CDT 75.0 18.800
Apr 08 01:00 CDT 75.4 18.900
Apr 08 00:00 CDT 75.6 18.800
Apr 07 23:00 CDT 75.6 18.600

Historical Data Availability